Time;durP1;ratioP1;P1;durP2;ratioP2;P2;SDS_P1;SDS_P2;PMS_P1;PMS_P2;Temp;Humidity;BMP_temperature;BMP_pressure;BME280_temperature;BME280_humidity;BME280_pressure;Samples;Min_cycle;Max_cycle;Signal;HPM_P1;HPM_P2
2023/06/10 00:00:41;;;;;;;;;;;12.40;99.90;;;;;;5013695;28;19916;-65
2023/06/10 00:03:12;;;;;;;;;;;12.50;99.90;;;;;;5013468;28;20290;-65
2023/06/10 00:05:38;;;;;;;;;;;12.60;99.90;;;;;;5013162;28;20302;-66
2023/06/10 00:08:08;;;;;;;;;;;12.70;99.90;;;;;;5013596;28;19978;-65
2023/06/10 00:10:35;;;;;;;;;;;12.80;99.90;;;;;;5013377;28;20440;-64
2023/06/10 00:13:03;;;;;;;;;;;12.90;99.90;;;;;;5010671;28;20003;-65
2023/06/10 00:15:30;;;;;;;;;;;13.00;99.90;;;;;;5012835;28;19916;-67
2023/06/10 00:17:57;;;;;;;;;;;13.00;99.90;;;;;;5012978;28;20255;-65
2023/06/10 00:20:24;;;;;;;;;;;13.20;99.90;;;;;;5013088;28;20375;-65
2023/06/10 00:22:52;;;;;;;;;;;13.30;99.90;;;;;;5013208;28;19956;-65
2023/06/10 00:25:18;;;;;;;;;;;13.40;99.90;;;;;;5009886;28;19910;-65
2023/06/10 00:27:45;;;;;;;;;;;13.50;99.90;;;;;;5013207;28;20372;-66
2023/06/10 00:30:12;;;;;;;;;;;13.70;99.90;;;;;;5013059;28;19910;-65
2023/06/10 00:32:38;;;;;;;;;;;13.70;99.90;;;;;;5013176;28;19993;-66
2023/06/10 00:35:06;;;;;;;;;;;13.80;99.90;;;;;;5012907;28;19916;-66
2023/06/10 00:37:34;;;;;;;;;;;13.90;99.90;;;;;;5012754;28;19959;-63
2023/06/10 00:40:02;;;;;;;;;;;14.00;99.90;;;;;;5011088;28;19913;-63
2023/06/10 00:42:28;;;;;;;;;;;14.10;99.90;;;;;;5012656;28;20001;-65
2023/06/10 00:44:55;;;;;;;;;;;14.10;99.90;;;;;;5012858;28;20008;-62
2023/06/10 00:47:22;;;;;;;;;;;14.20;99.90;;;;;;5012653;28;19956;-65
2023/06/10 00:49:50;;;;;;;;;;;14.20;99.90;;;;;;5012436;28;19972;-66
2023/06/10 00:52:17;;;;;;;;;;;14.30;99.90;;;;;;5010152;28;19913;-65
2023/06/10 00:54:44;;;;;;;;;;;14.50;99.50;;;;;;5006780;28;19909;-66
2023/06/10 00:57:13;;;;;;;;;;;14.50;99.20;;;;;;5012328;28;19909;-65
2023/06/10 00:59:41;;;;;;;;;;;14.60;98.90;;;;;;5012069;28;20351;-65
2023/06/10 01:02:09;;;;;;;;;;;14.60;98.30;;;;;;5012342;28;19961;-65
2023/06/10 01:04:36;;;;;;;;;;;14.70;98.20;;;;;;5015964;28;19910;-64
2023/06/10 01:07:14;;;;;;;;;;;14.70;97.90;;;;;;5016478;28;19915;-63
2023/06/10 01:09:57;;;;;;;;;;;14.80;97.20;;;;;;5013744;28;19958;-63
2023/06/10 01:12:26;;;;;;;;;;;15.00;97.70;;;;;;5008834;28;19996;-65
2023/06/10 01:14:53;;;;;;;;;;;15.00;97.40;;;;;;5016225;28;19916;-63
2023/06/10 01:17:20;;;;;;;;;;;15.10;97.10;;;;;;5016142;28;19909;-65
2023/06/10 01:19:56;;;;;;;;;;;15.10;96.80;;;;;;5016500;28;20370;-64
2023/06/10 01:22:25;;;;;;;;;;;15.20;96.10;;;;;;5015863;28;19961;-65
2023/06/10 01:24:52;;;;;;;;;;;15.30;96.40;;;;;;5015354;28;19910;-65
2023/06/10 01:27:21;;;;;;;;;;;15.40;96.00;;;;;;5015729;28;19913;-66
2023/06/10 01:29:54;;;;;;;;;;;15.40;95.60;;;;;;5015455;28;19910;-64
2023/06/10 01:32:29;;;;;;;;;;;15.50;95.50;;;;;;5015985;28;19953;-66
2023/06/10 01:34:56;;;;;;;;;;;15.60;95.80;;;;;;5015813;28;19909;-65
2023/06/10 01:37:24;;;;;;;;;;;15.70;95.60;;;;;;5016263;28;19916;-65
2023/06/10 01:39:51;;;;;;;;;;;15.80;95.10;;;;;;5016352;28;20000;-67
2023/06/10 01:42:18;;;;;;;;;;;15.90;95.00;;;;;;5016033;28;20314;-63
2023/06/10 01:44:45;;;;;;;;;;;15.90;94.30;;;;;;5016186;28;19909;-64
2023/06/10 01:47:11;;;;;;;;;;;15.90;94.10;;;;;;5016058;28;19909;-65
2023/06/10 01:49:38;;;;;;;;;;;16.00;94.20;;;;;;5015953;28;19921;-65
2023/06/10 01:52:05;;;;;;;;;;;16.10;94.00;;;;;;5015958;28;19913;-66
2023/06/10 01:54:31;;;;;;;;;;;16.20;93.80;;;;;;5016219;28;19910;-64
2023/06/10 01:56:58;;;;;;;;;;;16.40;93.40;;;;;;5015856;28;20371;-65
2023/06/10 01:59:25;;;;;;;;;;;16.50;93.00;;;;;;5015927;28;19916;-65
2023/06/10 02:01:51;;;;;;;;;;;16.50;92.40;;;;;;5015609;28;20373;-65
2023/06/10 02:04:18;;;;;;;;;;;16.60;92.30;;;;;;5015923;28;19914;-65
2023/06/10 02:06:45;;;;;;;;;;;16.40;91.50;;;;;;5015858;28;19916;-65
2023/06/10 02:09:12;;;;;;;;;;;16.40;91.90;;;;;;5015806;28;19920;-66
2023/06/10 02:11:38;;;;;;;;;;;16.40;92.60;;;;;;5015513;28;20274;-65
2023/06/10 02:14:05;;;;;;;;;;;16.40;92.00;;;;;;5015054;28;19909;-65
2023/06/10 02:16:32;;;;;;;;;;;16.50;92.40;;;;;;5015044;28;19914;-66
2023/06/10 02:19:00;;;;;;;;;;;16.50;91.50;;;;;;5015527;28;19910;-65
2023/06/10 02:21:27;;;;;;;;;;;16.50;91.40;;;;;;5015531;28;19910;-64
2023/06/10 02:23:53;;;;;;;;;;;16.60;91.10;;;;;;5015476;28;19913;-64
2023/06/10 02:26:20;;;;;;;;;;;16.70;91.80;;;;;;5015505;28;19916;-65
2023/06/10 02:28:47;;;;;;;;;;;16.90;91.90;;;;;;5015274;28;19910;-66
2023/06/10 02:31:14;;;;;;;;;;;17.10;91.00;;;;;;5015517;28;19909;-65
2023/06/10 02:33:41;;;;;;;;;;;17.50;89.90;;;;;;5015204;28;19916;-65
2023/06/10 02:36:08;;;;;;;;;;;17.80;88.60;;;;;;5015103;28;19996;-65
2023/06/10 02:38:35;;;;;;;;;;;17.70;87.00;;;;;;5015225;28;20323;-64
2023/06/10 02:41:01;;;;;;;;;;;17.60;86.60;;;;;;5014798;28;19913;-64
2023/06/10 02:43:28;;;;;;;;;;;17.60;88.20;;;;;;5015060;28;19964;-65
2023/06/10 02:45:54;;;;;;;;;;;17.50;88.10;;;;;;5014898;28;19979;-64
2023/06/10 02:48:21;;;;;;;;;;;17.50;87.20;;;;;;5014921;28;19913;-63
2023/06/10 02:50:48;;;;;;;;;;;17.50;86.50;;;;;;5014771;28;19925;-64
2023/06/10 02:53:14;;;;;;;;;;;17.70;86.50;;;;;;5014943;28;19945;-64
2023/06/10 02:55:41;;;;;;;;;;;17.90;85.50;;;;;;5014646;28;19914;-66
2023/06/10 02:58:08;;;;;;;;;;;18.70;83.80;;;;;;5014869;28;19917;-66
2023/06/10 03:00:35;;;;;;;;;;;19.20;82.30;;;;;;5014728;28;19978;-64
2023/06/10 03:03:03;;;;;;;;;;;19.60;81.50;;;;;;5014500;28;19944;-65
2023/06/10 03:05:29;;;;;;;;;;;20.00;78.30;;;;;;5014655;28;19909;-64
2023/06/10 03:07:56;;;;;;;;;;;20.10;77.40;;;;;;5014661;28;19910;-65
2023/06/10 03:10:23;;;;;;;;;;;19.90;78.60;;;;;;5014547;28;19917;-66
2023/06/10 03:12:49;;;;;;;;;;;19.70;79.40;;;;;;5014717;28;20331;-63
2023/06/10 03:15:16;;;;;;;;;;;19.60;80.40;;;;;;5014772;28;19910;-64
2023/06/10 03:17:43;;;;;;;;;;;19.70;79.50;;;;;;5014304;28;19909;-64
2023/06/10 03:20:10;;;;;;;;;;;20.10;79.90;;;;;;4996923;28;20278;-66
2023/06/10 03:22:37;;;;;;;;;;;20.40;78.90;;;;;;5014332;28;20020;-65
2023/06/10 03:25:05;;;;;;;;;;;21.30;77.40;;;;;;5014248;28;19916;-63
2023/06/10 03:27:32;;;;;;;;;;;22.40;75.30;;;;;;5014283;28;20329;-64
2023/06/10 03:29:59;;;;;;;;;;;23.00;74.10;;;;;;5014080;28;19914;-66
2023/06/10 03:32:25;;;;;;;;;;;23.00;72.80;;;;;;5014073;28;19910;-65
2023/06/10 03:34:56;;;;;;;;;;;24.00;71.40;;;;;;5014364;28;19916;-65
2023/06/10 03:37:23;;;;;;;;;;;25.40;69.50;;;;;;5014159;28;19913;-64
2023/06/10 03:39:50;;;;;;;;;;;26.40;66.50;;;;;;5013977;28;19909;-65
2023/06/10 03:42:17;;;;;;;;;;;27.50;65.30;;;;;;5014304;28;19936;-65
2023/06/10 03:44:43;;;;;;;;;;;28.50;62.70;;;;;;5013815;28;19956;-65
2023/06/10 03:47:10;;;;;;;;;;;29.30;60.70;;;;;;5013754;28;19952;-64
2023/06/10 03:49:37;;;;;;;;;;;30.40;58.70;;;;;;5013624;28;19930;-65
2023/06/10 03:52:04;;;;;;;;;;;30.50;57.20;;;;;;5013760;28;19925;-67
2023/06/10 03:54:31;;;;;;;;;;;30.70;55.20;;;;;;5013833;28;19917;-66
2023/06/10 03:56:58;;;;;;;;;;;30.70;55.70;;;;;;5013603;28;20362;-65
2023/06/10 03:59:25;;;;;;;;;;;30.50;54.50;;;;;;5013602;28;20283;-65
2023/06/10 04:01:51;;;;;;;;;;;30.60;55.20;;;;;;5013877;28;20274;-65
2023/06/10 04:04:18;;;;;;;;;;;30.80;53.80;;;;;;5013643;28;19916;-66
2023/06/10 04:06:44;;;;;;;;;;;30.30;53.60;;;;;;5013413;28;19957;-65
2023/06/10 04:09:11;;;;;;;;;;;29.20;54.40;;;;;;5013666;28;19909;-65
2023/06/10 04:11:38;;;;;;;;;;;27.60;56.40;;;;;;5013859;28;19921;-65
2023/06/10 04:14:05;;;;;;;;;;;26.10;58.00;;;;;;5013382;28;20398;-65
2023/06/10 04:16:31;;;;;;;;;;;24.90;59.30;;;;;;5013277;28;19945;-66
2023/06/10 04:18:59;;;;;;;;;;;23.80;61.10;;;;;;5013263;28;19909;-64
2023/06/10 04:21:26;;;;;;;;;;;22.80;62.80;;;;;;5013144;28;19916;-65
2023/06/10 04:23:52;;;;;;;;;;;22.00;64.40;;;;;;5013603;28;19940;-63
2023/06/10 04:26:19;;;;;;;;;;;21.20;66.20;;;;;;5013164;28;19916;-64
2023/06/10 04:28:46;;;;;;;;;;;20.70;67.50;;;;;;5013512;28;19920;-65
2023/06/10 04:31:13;;;;;;;;;;;20.20;68.90;;;;;;5013208;28;19909;-64
2023/06/10 04:33:40;;;;;;;;;;;19.90;68.90;;;;;;5011713;28;19909;-64
2023/06/10 04:36:06;;;;;;;;;;;19.80;69.90;;;;;;5013041;28;20360;-64
2023/06/10 04:38:33;;;;;;;;;;;19.50;70.30;;;;;;5012825;28;19932;-63
2023/06/10 04:41:00;;;;;;;;;;;19.40;71.30;;;;;;5013205;28;19909;-64
2023/06/10 04:43:28;;;;;;;;;;;19.30;71.30;;;;;;5013045;28;19917;-63
2023/06/10 04:45:55;;;;;;;;;;;19.30;71.60;;;;;;5012830;28;19909;-64
2023/06/10 04:48:24;;;;;;;;;;;19.20;71.80;;;;;;5013085;28;19936;-64
2023/06/10 04:50:51;;;;;;;;;;;19.10;72.60;;;;;;5012778;28;19941;-64
2023/06/10 04:53:18;;;;;;;;;;;19.10;72.40;;;;;;5013110;28;20390;-64
2023/06/10 04:55:45;;;;;;;;;;;19.10;72.70;;;;;;5013092;28;20035;-64
2023/06/10 04:58:11;;;;;;;;;;;19.20;72.60;;;;;;5013140;28;19910;-64
2023/06/10 05:00:38;;;;;;;;;;;19.40;73.00;;;;;;5012879;28;19932;-64
2023/06/10 05:03:05;;;;;;;;;;;19.40;72.70;;;;;;5012658;28;19924;-66
2023/06/10 05:05:31;;;;;;;;;;;19.40;72.50;;;;;;5012747;28;19909;-66
2023/06/10 05:07:58;;;;;;;;;;;19.30;72.90;;;;;;5012760;28;20274;-66
2023/06/10 05:10:25;;;;;;;;;;;19.30;74.00;;;;;;5012993;28;19917;-65
2023/06/10 05:12:52;;;;;;;;;;;19.30;73.80;;;;;;5012608;28;19916;-67
2023/06/10 05:15:18;;;;;;;;;;;19.30;72.50;;;;;;5012887;28;19913;-65
2023/06/10 05:17:45;;;;;;;;;;;19.50;73.10;;;;;;5012715;28;19948;-65
2023/06/10 05:20:13;;;;;;;;;;;19.50;73.00;;;;;;5012740;28;20330;-64
2023/06/10 05:22:40;;;;;;;;;;;19.60;73.60;;;;;;5012546;28;19918;-64
2023/06/10 05:25:07;;;;;;;;;;;19.50;72.30;;;;;;5012465;28;19992;-65
2023/06/10 05:27:34;;;;;;;;;;;19.40;73.00;;;;;;5012800;28;19914;-65
2023/06/10 05:30:00;;;;;;;;;;;19.40;75.30;;;;;;5012815;28;19909;-66
2023/06/10 05:32:27;;;;;;;;;;;19.50;75.00;;;;;;5012696;28;20282;-65
2023/06/10 05:34:54;;;;;;;;;;;19.60;73.20;;;;;;5012663;28;19910;-66
2023/06/10 05:37:21;;;;;;;;;;;19.60;73.70;;;;;;5012283;28;19913;-63
2023/06/10 05:39:47;;;;;;;;;;;19.70;73.30;;;;;;5012729;28;19920;-65
2023/06/10 05:42:14;;;;;;;;;;;20.00;72.40;;;;;;5012525;28;19917;-65
2023/06/10 05:44:40;;;;;;;;;;;20.30;73.60;;;;;;5012430;28;19973;-63
2023/06/10 05:47:07;;;;;;;;;;;20.70;74.30;;;;;;5012222;28;19909;-64
2023/06/10 05:49:34;;;;;;;;;;;20.70;72.50;;;;;;5012684;28;19929;-65
2023/06/10 05:52:04;;;;;;;;;;;20.80;71.90;;;;;;5015335;28;20211;-65
2023/06/10 05:54:31;;;;;;;;;;;20.80;74.20;;;;;;5016302;28;19996;-63
2023/06/10 05:56:58;;;;;;;;;;;20.90;74.90;;;;;;5016093;28;19967;-63
2023/06/10 05:59:24;;;;;;;;;;;21.20;74.20;;;;;;5015912;28;20279;-64
2023/06/10 06:01:51;;;;;;;;;;;21.30;73.70;;;;;;5015722;28;19914;-63
2023/06/10 06:04:18;;;;;;;;;;;21.70;73.70;;;;;;5015927;28;19913;-64
2023/06/10 06:06:44;;;;;;;;;;;22.10;74.90;;;;;;5015880;28;20385;-64
2023/06/10 06:09:11;;;;;;;;;;;22.30;72.00;;;;;;5015912;28;19913;-65
2023/06/10 06:11:37;;;;;;;;;;;22.40;71.20;;;;;;5015528;28;19909;-65
2023/06/10 06:14:04;;;;;;;;;;;22.10;73.50;;;;;;5015729;28;19964;-65
2023/06/10 06:16:31;;;;;;;;;;;21.70;75.00;;;;;;5015521;28;19910;-64
2023/06/10 06:18:57;;;;;;;;;;;21.30;73.70;;;;;;5015756;28;20008;-65
2023/06/10 06:21:24;;;;;;;;;;;21.00;75.00;;;;;;5015455;28;19917;-65
2023/06/10 06:23:51;;;;;;;;;;;20.60;76.90;;;;;;5015336;28;19913;-65
2023/06/10 06:26:18;;;;;;;;;;;20.20;78.00;;;;;;5015187;28;19914;-65
2023/06/10 06:28:44;;;;;;;;;;;19.70;78.70;;;;;;5015441;28;19914;-64
2023/06/10 06:31:11;;;;;;;;;;;19.30;80.70;;;;;;4997743;28;19913;-65
2023/06/10 06:33:41;;;;;;;;;;;18.70;81.50;;;;;;5014036;28;20359;-64
2023/06/10 06:36:07;;;;;;;;;;;18.30;82.40;;;;;;4997859;28;20003;-64
2023/06/10 06:38:37;;;;;;;;;;;17.90;83.80;;;;;;5015448;28;19910;-65
2023/06/10 06:41:06;;;;;;;;;;;17.60;84.00;;;;;;5015289;28;19916;-65
2023/06/10 06:43:36;;;;;;;;;;;17.30;85.30;;;;;;5015410;28;19960;-64
2023/06/10 06:46:02;;;;;;;;;;;17.10;85.50;;;;;;5013814;28;20348;-64
2023/06/10 06:48:29;;;;;;;;;;;16.90;87.30;;;;;;5015094;28;19919;-65
2023/06/10 06:50:57;;;;;;;;;;;16.70;87.90;;;;;;4998054;28;19917;-63
2023/06/10 06:53:24;;;;;;;;;;;16.50;89.00;;;;;;4998632;28;19917;-64
2023/06/10 06:55:51;;;;;;;;;;;16.30;90.00;;;;;;5015966;28;19979;-64
2023/06/10 06:58:17;;;;;;;;;;;16.30;90.50;;;;;;5015030;28;19910;-63
2023/06/10 07:00:44;;;;;;;;;;;16.10;90.80;;;;;;5014620;28;19910;-65
2023/06/10 07:03:11;;;;;;;;;;;15.80;91.20;;;;;;5014660;28;19917;-64
2023/06/10 07:05:38;;;;;;;;;;;15.70;91.60;;;;;;5014905;28;20327;-64
2023/06/10 07:08:05;;;;;;;;;;;15.60;91.80;;;;;;5013545;28;20358;-63
2023/06/10 07:10:32;;;;;;;;;;;15.50;92.20;;;;;;5014896;28;19913;-64
2023/06/10 07:12:59;;;;;;;;;;;15.40;92.50;;;;;;5014681;28;19909;-64
2023/06/10 07:15:26;;;;;;;;;;;15.30;92.80;;;;;;5014556;28;19949;-63
2023/06/10 07:17:52;;;;;;;;;;;15.20;93.20;;;;;;5014420;28;19917;-63
2023/06/10 07:20:19;;;;;;;;;;;15.00;93.60;;;;;;5014407;28;19935;-63
2023/06/10 07:22:46;;;;;;;;;;;15.00;94.30;;;;;;5014319;28;19917;-64
2023/06/10 07:25:12;;;;;;;;;;;14.90;94.60;;;;;;4996762;28;19914;-65
2023/06/10 07:27:39;;;;;;;;;;;14.80;95.00;;;;;;5014260;28;19914;-64
2023/06/10 07:30:08;;;;;;;;;;;14.70;95.50;;;;;;5014304;28;20287;-65
2023/06/10 07:32:34;;;;;;;;;;;14.60;96.00;;;;;;5014359;28;19909;-65
2023/06/10 07:35:01;;;;;;;;;;;14.50;96.30;;;;;;4996637;28;19909;-65
2023/06/10 07:37:28;;;;;;;;;;;14.40;96.90;;;;;;5014098;28;19910;-63
2023/06/10 07:39:55;;;;;;;;;;;14.30;97.40;;;;;;5014208;28;19906;-64
2023/06/10 07:42:22;;;;;;;;;;;14.20;97.40;;;;;;5014034;28;19925;-65
2023/06/10 07:44:48;;;;;;;;;;;14.10;97.80;;;;;;5013924;28;19920;-66
2023/06/10 07:47:15;;;;;;;;;;;14.00;98.40;;;;;;5013801;28;19963;-65
2023/06/10 07:49:42;;;;;;;;;;;14.00;98.80;;;;;;5013656;28;20433;-63
2023/06/10 07:52:09;;;;;;;;;;;13.90;99.30;;;;;;5013730;28;19914;-64
2023/06/10 07:54:35;;;;;;;;;;;13.70;99.50;;;;;;5013976;28;19920;-64
2023/06/10 07:57:02;;;;;;;;;;;13.60;99.90;;;;;;5013784;28;19956;-65
2023/06/10 07:59:29;;;;;;;;;;;13.60;99.90;;;;;;4996131;28;20301;-62
2023/06/10 08:01:55;;;;;;;;;;;13.50;99.90;;;;;;5013854;28;19913;-64
2023/06/10 08:04:22;;;;;;;;;;;13.40;99.90;;;;;;5013452;28;19967;-64
2023/06/10 08:06:48;;;;;;;;;;;13.40;99.90;;;;;;5013811;28;19972;-64
2023/06/10 08:09:15;;;;;;;;;;;13.40;99.90;;;;;;5014585;28;19935;-64
2023/06/10 08:11:42;;;;;;;;;;;13.40;99.90;;;;;;5014409;28;20294;-63
2023/06/10 08:14:09;;;;;;;;;;;13.30;99.90;;;;;;5011906;28;19909;-64
2023/06/10 08:16:36;;;;;;;;;;;13.20;99.90;;;;;;4995712;28;19913;-65
2023/06/10 08:19:02;;;;;;;;;;;13.20;99.90;;;;;;5012068;28;20329;-63
2023/06/10 08:21:29;;;;;;;;;;;13.10;99.90;;;;;;5013333;28;19916;-64
2023/06/10 08:23:55;;;;;;;;;;;13.10;99.90;;;;;;5013533;28;20358;-64
2023/06/10 08:26:22;;;;;;;;;;;13.00;99.90;;;;;;5013402;28;19913;-64
2023/06/10 08:28:49;;;;;;;;;;;13.00;99.90;;;;;;5013480;28;19915;-65
2023/06/10 08:31:15;;;;;;;;;;;13.00;99.90;;;;;;5013233;28;19917;-65
2023/06/10 08:33:45;;;;;;;;;;;12.90;99.90;;;;;;5013448;28;19914;-65
2023/06/10 08:36:11;;;;;;;;;;;12.90;99.90;;;;;;5013248;28;20278;-64
2023/06/10 08:38:38;;;;;;;;;;;12.80;99.90;;;;;;5013254;28;19913;-64
2023/06/10 08:41:06;;;;;;;;;;;12.80;99.90;;;;;;5012810;28;19909;-65
2023/06/10 08:43:39;;;;;;;;;;;12.80;99.90;;;;;;5011860;28;20391;-66
2023/06/10 08:46:11;;;;;;;;;;;12.70;99.90;;;;;;5012966;28;19910;-63
2023/06/10 08:48:42;;;;;;;;;;;12.70;99.90;;;;;;5013192;28;20020;-63
2023/06/10 08:51:09;;;;;;;;;;;12.70;99.90;;;;;;5011352;28;19910;-63
2023/06/10 08:53:38;;;;;;;;;;;12.60;99.90;;;;;;5013083;28;19913;-65
2023/06/10 08:56:08;;;;;;;;;;;12.50;99.90;;;;;;5012854;28;19920;-65
2023/06/10 08:58:41;;;;;;;;;;;12.50;99.90;;;;;;4995401;28;20004;-65
2023/06/10 09:01:09;;;;;;;;;;;12.50;99.90;;;;;;5013163;28;19909;-63
2023/06/10 09:03:38;;;;;;;;;;;12.50;99.90;;;;;;5012261;28;19918;-66
2023/06/10 09:06:05;;;;;;;;;;;12.40;99.90;;;;;;5012775;28;19920;-64
2023/06/10 09:08:33;;;;;;;;;;;12.40;99.90;;;;;;5011334;28;19948;-65
2023/06/10 09:11:00;;;;;;;;;;;12.40;99.90;;;;;;5012580;28;19955;-64
2023/06/10 09:13:27;;;;;;;;;;;12.40;99.90;;;;;;5013005;28;19917;-64
2023/06/10 09:15:57;;;;;;;;;;;12.30;99.90;;;;;;5012646;28;20358;-63
2023/06/10 09:18:24;;;;;;;;;;;12.40;99.90;;;;;;5012762;28;19956;-64
2023/06/10 09:20:50;;;;;;;;;;;12.30;99.90;;;;;;5012771;28;19936;-64
2023/06/10 09:23:17;;;;;;;;;;;12.30;99.90;;;;;;5012808;28;19925;-64
2023/06/10 09:25:44;;;;;;;;;;;12.20;99.90;;;;;;5016748;28;19979;-64
2023/06/10 09:28:15;;;;;;;;;;;12.20;99.90;;;;;;5016676;28;20290;-64
2023/06/10 09:30:41;;;;;;;;;;;12.10;99.90;;;;;;5016808;28;19955;-63
2023/06/10 09:33:18;;;;;;;;;;;12.20;99.90;;;;;;5016377;28;19913;-65
2023/06/10 09:35:50;;;;;;;;;;;12.20;99.90;;;;;;5016532;28;19964;-65
2023/06/10 09:38:21;;;;;;;;;;;12.10;99.90;;;;;;5016402;28;19909;-65
2023/06/10 09:40:51;;;;;;;;;;;12.10;99.90;;;;;;5014947;28;20286;-66
2023/06/10 09:43:18;;;;;;;;;;;12.10;99.90;;;;;;5016238;28;20370;-64
2023/06/10 09:45:47;;;;;;;;;;;12.00;99.90;;;;;;5016281;28;19914;-65
2023/06/10 09:48:14;;;;;;;;;;;12.00;99.90;;;;;;5016212;28;19916;-65
2023/06/10 09:50:44;;;;;;;;;;;11.90;99.90;;;;;;5016004;28;19917;-64
2023/06/10 09:53:11;;;;;;;;;;;11.90;99.90;;;;;;5016167;28;19910;-66
2023/06/10 09:55:39;;;;;;;;;;;12.00;99.90;;;;;;5016746;28;19972;-66
2023/06/10 09:58:05;;;;;;;;;;;11.90;99.90;;;;;;5016179;28;20384;-66
2023/06/10 10:00:33;;;;;;;;;;;11.80;99.90;;;;;;5015823;28;20282;-65
2023/06/10 10:03:00;;;;;;;;;;;11.80;99.90;;;;;;4998340;28;19918;-64
2023/06/10 10:05:27;;;;;;;;;;;11.80;99.90;;;;;;5015854;28;19910;-64
2023/06/10 10:07:56;;;;;;;;;;;11.80;99.90;;;;;;5015914;28;19916;-65
2023/06/10 10:10:23;;;;;;;;;;;11.80;99.90;;;;;;4998278;28;19917;-65
2023/06/10 10:12:56;;;;;;;;;;;11.80;99.90;;;;;;5015748;28;19916;-67
2023/06/10 10:15:24;;;;;;;;;;;11.70;99.90;;;;;;5015750;28;20003;-65
2023/06/10 10:17:51;;;;;;;;;;;11.60;99.90;;;;;;5015690;28;19915;-65
2023/06/10 10:20:20;;;;;;;;;;;11.70;99.90;;;;;;5015769;28;20552;-65
2023/06/10 10:22:47;;;;;;;;;;;11.60;99.90;;;;;;5015856;28;19924;-65
2023/06/10 10:25:16;;;;;;;;;;;11.60;99.90;;;;;;5015935;28;19963;-65
2023/06/10 10:28:05;;;;;;;;;;;11.60;99.90;;;;;;5015589;28;20433;-64
2023/06/10 10:30:35;;;;;;;;;;;11.60;99.90;;;;;;5002872;28;19922;-64
2023/06/10 10:33:08;;;;;;;;;;;11.50;99.90;;;;;;5015390;28;20326;-65
2023/06/10 10:35:35;;;;;;;;;;;11.50;99.90;;;;;;5014592;28;19909;-65
2023/06/10 10:38:03;;;;;;;;;;;11.40;99.90;;;;;;5015235;28;19910;-65
2023/06/10 10:40:30;;;;;;;;;;;11.30;99.90;;;;;;5015112;28;19910;-64
2023/06/10 10:42:57;;;;;;;;;;;11.30;99.90;;;;;;5015158;28;19924;-64
2023/06/10 10:45:24;;;;;;;;;;;11.30;99.90;;;;;;5015310;28;19909;-64
2023/06/10 10:47:57;;;;;;;;;;;11.40;99.90;;;;;;5015371;28;19909;-64
2023/06/10 10:50:24;;;;;;;;;;;11.30;99.90;;;;;;5014948;28;19922;-65
2023/06/10 10:52:51;;;;;;;;;;;11.30;99.90;;;;;;5013755;28;19910;-65
2023/06/10 10:55:17;;;;;;;;;;;11.30;99.90;;;;;;5015269;28;19924;-64
2023/06/10 10:57:45;;;;;;;;;;;11.20;99.90;;;;;;5015204;28;19937;-64
2023/06/10 11:00:11;;;;;;;;;;;11.30;99.90;;;;;;5015086;28;19960;-65
2023/06/10 11:02:49;;;;;;;;;;;11.20;99.90;;;;;;5015042;28;19917;-65
2023/06/10 11:05:16;;;;;;;;;;;11.20;99.90;;;;;;5015168;28;19916;-66
2023/06/10 11:07:54;;;;;;;;;;;11.20;99.90;;;;;;5015090;28;19972;-64
2023/06/10 11:10:28;;;;;;;;;;;11.10;99.90;;;;;;5014829;28;19912;-66
2023/06/10 11:12:57;;;;;;;;;;;11.10;99.90;;;;;;5015057;28;20288;-64
2023/06/10 11:15:25;;;;;;;;;;;11.00;99.90;;;;;;5000052;28;20385;-66
2023/06/10 11:18:12;;;;;;;;;;;11.00;99.90;;;;;;5018590;28;19916;-65
2023/06/10 11:20:52;;;;;;;;;;;11.00;99.90;;;;;;5016775;28;20385;-64
2023/06/10 11:23:28;;;;;;;;;;;10.90;99.90;;;;;;5015715;28;19923;-65
2023/06/10 11:26:13;;;;;;;;;;;11.00;99.90;;;;;;5015323;28;19909;-66
2023/06/10 11:28:40;;;;;;;;;;;10.90;99.90;;;;;;5014260;28;20393;-66
2023/06/10 11:31:07;;;;;;;;;;;10.90;99.90;;;;;;5014415;28;19909;-65
2023/06/10 11:33:33;;;;;;;;;;;10.90;99.90;;;;;;5014589;28;20489;-64
2023/06/10 11:36:00;;;;;;;;;;;10.90;99.90;;;;;;5014327;28;19914;-64
2023/06/10 11:38:27;;;;;;;;;;;10.90;99.90;;;;;;5014259;28;19917;-64
2023/06/10 11:40:53;;;;;;;;;;;10.80;99.90;;;;;;5014078;28;20355;-65
2023/06/10 11:43:20;;;;;;;;;;;10.80;99.90;;;;;;5013888;28;20012;-62
2023/06/10 11:45:47;;;;;;;;;;;10.80;99.90;;;;;;5014077;28;19917;-63
2023/06/10 11:48:13;;;;;;;;;;;10.90;99.90;;;;;;5012964;28;19910;-63
2023/06/10 11:50:41;;;;;;;;;;;10.80;99.90;;;;;;5014048;28;19918;-64
2023/06/10 11:53:08;;;;;;;;;;;10.80;99.90;;;;;;5014012;28;19914;-64
2023/06/10 11:55:45;;;;;;;;;;;10.80;99.90;;;;;;5013731;28;19910;-65
2023/06/10 11:58:19;;;;;;;;;;;10.80;99.90;;;;;;5013790;28;19917;-65
2023/06/10 12:00:53;;;;;;;;;;;10.80;99.90;;;;;;5014060;28;20413;-65
2023/06/10 12:03:20;;;;;;;;;;;10.80;99.90;;;;;;5013822;28;19923;-66
2023/06/10 12:06:00;;;;;;;;;;;10.80;99.90;;;;;;5013847;28;19916;-66
2023/06/10 12:08:30;;;;;;;;;;;10.80;99.90;;;;;;5013813;28;19916;-65
2023/06/10 12:10:57;;;;;;;;;;;10.80;99.90;;;;;;5013838;28;19909;-65
2023/06/10 12:13:24;;;;;;;;;;;10.90;99.90;;;;;;5013902;28;19910;-64
2023/06/10 12:15:51;;;;;;;;;;;10.80;99.90;;;;;;5013592;28;20358;-65
2023/06/10 12:18:21;;;;;;;;;;;10.80;99.90;;;;;;5013770;28;19964;-64
2023/06/10 12:20:48;;;;;;;;;;;10.70;99.90;;;;;;5013478;28;20403;-65
2023/06/10 12:23:16;;;;;;;;;;;10.80;99.90;;;;;;5013184;28;19987;-64
2023/06/10 12:25:55;;;;;;;;;;;10.70;99.90;;;;;;5013493;28;19920;-65
2023/06/10 12:28:27;;;;;;;;;;;10.80;99.90;;;;;;5013264;28;19913;-64
2023/06/10 12:31:13;;;;;;;;;;;10.80;99.90;;;;;;5013285;28;20005;-66
2023/06/10 12:33:41;;;;;;;;;;;10.70;99.90;;;;;;5012559;28;19909;-66
2023/06/10 12:36:16;;;;;;;;;;;10.70;99.90;;;;;;5013287;28;19917;-64
2023/06/10 12:38:44;;;;;;;;;;;10.80;99.90;;;;;;5013315;28;20371;-64
2023/06/10 12:41:11;;;;;;;;;;;10.70;99.90;;;;;;5013303;28;19910;-65
2023/06/10 12:43:40;;;;;;;;;;;10.70;99.90;;;;;;4995544;28;20528;-65
2023/06/10 12:46:12;;;;;;;;;;;10.60;99.90;;;;;;5013198;28;19909;-64
2023/06/10 12:48:49;;;;;;;;;;;10.60;99.90;;;;;;5013110;28;19921;-64
2023/06/10 12:51:16;;;;;;;;;;;10.60;99.90;;;;;;5014262;28;20334;-64
2023/06/10 12:53:43;;;;;;;;;;;10.70;99.90;;;;;;5013095;28;20367;-64
2023/06/10 12:56:09;;;;;;;;;;;10.60;99.90;;;;;;5012953;28;19935;-65
2023/06/10 12:58:36;;;;;;;;;;;10.50;99.90;;;;;;5013314;28;19909;-65
2023/06/10 13:01:04;;;;;;;;;;;10.50;99.90;;;;;;5017064;28;19910;-64
2023/06/10 13:03:30;;;;;;;;;;;10.50;99.90;;;;;;5016959;28;20008;-64
2023/06/10 13:05:57;;;;;;;;;;;10.50;99.90;;;;;;5017277;28;19909;-63
2023/06/10 13:08:24;;;;;;;;;;;10.50;99.90;;;;;;5017907;28;19905;-64
2023/06/10 13:10:51;;;;;;;;;;;10.40;99.90;;;;;;5016635;28;19956;-64
2023/06/10 13:13:18;;;;;;;;;;;10.40;99.90;;;;;;5017511;28;19969;-64
2023/06/10 13:15:45;;;;;;;;;;;10.40;99.90;;;;;;5016931;28;20274;-64
2023/06/10 13:18:11;;;;;;;;;;;10.30;99.90;;;;;;5017155;28;19909;-64
2023/06/10 13:20:38;;;;;;;;;;;10.30;99.90;;;;;;5016691;28;19976;-65
2023/06/10 13:23:05;;;;;;;;;;;10.30;99.90;;;;;;5016868;28;19918;-64
2023/06/10 13:25:32;;;;;;;;;;;10.30;99.90;;;;;;5016982;28;19910;-65
2023/06/10 13:27:58;;;;;;;;;;;10.30;99.90;;;;;;5016591;28;19913;-66
2023/06/10 13:30:26;;;;;;;;;;;10.30;99.90;;;;;;5016476;28;19953;-65
2023/06/10 13:32:53;;;;;;;;;;;10.30;99.90;;;;;;5016417;28;20004;-63
2023/06/10 13:35:19;;;;;;;;;;;10.30;99.90;;;;;;5016595;28;20277;-64
2023/06/10 13:37:46;;;;;;;;;;;10.10;99.90;;;;;;5016318;28;20278;-64
2023/06/10 13:40:13;;;;;;;;;;;10.10;99.90;;;;;;5016556;28;19916;-64
2023/06/10 13:42:39;;;;;;;;;;;10.10;99.90;;;;;;5016462;28;19927;-64
2023/06/10 13:45:06;;;;;;;;;;;10.00;99.90;;;;;;5016082;28;20306;-64
2023/06/10 13:47:33;;;;;;;;;;;10.00;99.90;;;;;;5016400;28;19956;-64
2023/06/10 13:50:00;;;;;;;;;;;10.00;99.90;;;;;;5016311;28;19949;-64
2023/06/10 13:52:26;;;;;;;;;;;10.00;99.90;;;;;;5016312;28;19956;-64
2023/06/10 13:54:53;;;;;;;;;;;9.80;99.90;;;;;;5016193;28;19915;-64
2023/06/10 13:57:19;;;;;;;;;;;9.80;99.90;;;;;;5015878;28;19949;-62
2023/06/10 13:59:46;;;;;;;;;;;9.80;99.90;;;;;;5016068;28;19999;-63
2023/06/10 14:02:13;;;;;;;;;;;9.80;99.90;;;;;;5015998;28;20000;-64
2023/06/10 14:04:39;;;;;;;;;;;9.70;99.90;;;;;;5015937;28;20454;-63
2023/06/10 14:07:06;;;;;;;;;;;9.60;99.90;;;;;;5016043;28;20000;-63
2023/06/10 14:09:33;;;;;;;;;;;9.70;99.90;;;;;;5016034;28;20405;-65
2023/06/10 14:12:00;;;;;;;;;;;9.60;99.90;;;;;;5014582;28;19914;-63
2023/06/10 14:14:26;;;;;;;;;;;9.60;99.90;;;;;;5015770;28;19921;-63
2023/06/10 14:16:53;;;;;;;;;;;9.60;99.90;;;;;;5015746;28;19917;-63
2023/06/10 14:19:20;;;;;;;;;;;9.60;99.90;;;;;;5015564;28;19910;-63
2023/06/10 14:21:47;;;;;;;;;;;9.60;99.90;;;;;;5015647;28;19917;-64